Time;durP1;ratioP1;P1;durP2;ratioP2;P2;SDS_P1;SDS_P2;PMS_P1;PMS_P2;Temp;Humidity;BMP_temperature;BMP_pressure;BME280_temperature;BME280_humidity;BME280_pressure;Samples;Min_cycle;Max_cycle;Signal;HPM_P1;HPM_P2
2024/04/12 00:01:10;;;;;;;5.23;4.50;;;15.90;1.00;;;;;;5342086;26;21126;-72
2024/04/12 00:03:39;;;;;;;5.97;4.10;;;16.00;1.00;;;;;;5345057;26;20495;-73
2024/04/12 00:06:14;;;;;;;5.30;4.40;;;15.90;1.00;;;;;;5347060;26;20484;-72
2024/04/12 00:08:46;;;;;;;6.17;4.47;;;16.00;1.00;;;;;;5343605;26;20486;-74
2024/04/12 00:11:12;;;;;;;7.07;4.50;;;16.00;1.00;;;;;;5344547;26;20501;-74
2024/04/12 00:13:43;;;;;;;4.67;4.20;;;16.00;1.00;;;;;;5342677;26;20559;-75
2024/04/12 00:16:17;;;;;;;5.70;4.53;;;16.10;1.00;;;;;;5342576;26;20538;-72
2024/04/12 00:18:47;;;;;;;4.90;4.47;;;16.10;1.00;;;;;;5344879;26;21059;-73
2024/04/12 00:21:14;;;;;;;6.23;4.77;;;16.10;1.00;;;;;;5341294;26;20506;-72
2024/04/12 00:23:44;;;;;;;4.53;4.13;;;16.10;1.00;;;;;;5345219;25;20499;-71
2024/04/12 00:26:11;;;;;;;7.13;4.60;;;16.10;1.00;;;;;;5342531;25;22534;-72
2024/04/12 00:28:41;;;;;;;11.33;4.70;;;16.10;1.00;;;;;;5343519;26;20495;-72
2024/04/12 00:31:13;;;;;;;6.23;5.00;;;16.20;1.00;;;;;;5342248;26;21125;-73
2024/04/12 00:33:46;;;;;;;5.60;4.27;;;16.10;1.00;;;;;;5339631;25;21003;-75
2024/04/12 00:36:13;;;;;;;7.23;4.60;;;16.10;1.00;;;;;;5343984;26;20553;-73
2024/04/12 00:38:45;;;;;;;6.70;4.57;;;16.10;1.00;;;;;;5340660;26;20503;-72
2024/04/12 00:41:14;;;;;;;4.93;4.53;;;16.20;1.00;;;;;;5340423;26;21100;-72
2024/04/12 00:43:45;;;;;;;6.90;4.00;;;16.20;1.00;;;;;;5342216;26;20488;-73
2024/04/12 00:46:15;;;;;;;4.70;4.30;;;16.30;1.00;;;;;;5339232;26;21115;-73
2024/04/12 00:48:51;;;;;;;4.93;4.43;;;16.30;1.00;;;;;;5344505;26;20607;-72
2024/04/12 00:51:18;;;;;;;4.83;4.43;;;16.30;1.00;;;;;;5317074;26;20500;-73
2024/04/12 00:53:48;;;;;;;5.93;4.10;;;16.30;1.00;;;;;;5336529;26;20575;-75
2024/04/12 00:56:16;;;;;;;5.83;5.17;;;16.30;1.00;;;;;;5346704;26;21128;-72
2024/04/12 00:58:47;;;;;;;6.50;5.20;;;16.30;1.00;;;;;;5344677;26;20498;-71
2024/04/12 01:01:17;;;;;;;8.07;6.10;;;16.30;1.00;;;;;;5311890;26;20981;-72
2024/04/12 01:03:49;;;;;;;6.17;5.33;;;16.30;1.00;;;;;;5331054;26;21533;-72
2024/04/12 01:06:21;;;;;;;6.33;5.77;;;16.30;1.00;;;;;;5324845;26;22497;-71
2024/04/12 01:08:51;;;;;;;7.17;5.67;;;16.30;1.00;;;;;;5305145;26;20574;-71
2024/04/12 01:11:19;;;;;;;5.90;5.30;;;16.30;1.00;;;;;;5303407;26;20998;-74
2024/04/12 01:13:48;;;;;;;5.87;4.90;;;16.20;1.00;;;;;;5316162;26;21430;-72
2024/04/12 01:16:15;;;;;;;5.70;4.80;;;16.30;1.00;;;;;;5306561;26;20505;-71
2024/04/12 01:18:45;;;;;;;7.53;4.93;;;16.30;1.00;;;;;;5323609;26;21423;-71
2024/04/12 01:21:13;;;;;;;6.97;4.50;;;16.20;1.00;;;;;;5339859;26;20630;-72
2024/04/12 01:23:44;;;;;;;4.90;4.50;;;16.20;1.00;;;;;;5344853;26;20487;-72
2024/04/12 01:26:15;;;;;;;4.37;3.97;;;16.20;1.00;;;;;;5333242;26;20507;-71
2024/04/12 01:28:45;;;;;;;3.73;3.43;;;16.20;1.00;;;;;;5331552;26;20653;-71
2024/04/12 01:31:15;;;;;;;4.30;3.70;;;16.30;1.00;;;;;;5344853;26;21521;-72
2024/04/12 01:33:48;;;;;;;5.70;4.07;;;16.30;1.00;;;;;;5341108;26;20941;-74
2024/04/12 01:36:17;;;;;;;4.87;4.23;;;16.30;1.00;;;;;;5335727;26;20974;-72
2024/04/12 01:38:53;;;;;;;4.77;3.67;;;16.20;1.00;;;;;;5339972;26;20566;-72
2024/04/12 01:41:31;;;;;;;4.37;3.93;;;16.10;1.00;;;;;;5335161;26;21071;-72
2024/04/12 01:44:04;;;;;;;5.70;4.37;;;16.10;1.00;;;;;;5345369;26;20609;-72
2024/04/12 01:46:31;;;;;;;4.53;4.20;;;16.10;1.00;;;;;;5336233;26;20484;-73
2024/04/12 01:49:00;;;;;;;6.03;4.47;;;16.00;1.00;;;;;;5335194;26;20466;-72
2024/04/12 01:51:26;;;;;;;5.10;4.60;;;16.00;1.00;;;;;;5333254;26;20483;-73
2024/04/12 01:53:57;;;;;;;6.13;4.90;;;16.00;1.00;;;;;;5314643;26;20980;-73
2024/04/12 01:56:26;;;;;;;6.23;5.07;;;15.90;1.00;;;;;;5316000;26;20577;-73
2024/04/12 01:58:56;;;;;;;6.83;5.80;;;15.90;1.00;;;;;;5308186;26;20498;-73
2024/04/12 02:01:26;;;;;;;6.07;5.47;;;15.80;1.00;;;;;;5315210;26;20646;-73
2024/04/12 02:03:55;;;;;;;5.33;4.83;;;15.90;1.00;;;;;;5321207;26;20494;-73
2024/04/12 02:06:23;;;;;;;5.90;4.67;;;15.80;1.00;;;;;;5340118;26;20542;-73
2024/04/12 02:08:52;;;;;;;10.33;5.30;;;15.90;1.00;;;;;;5329191;26;20504;-73
2024/04/12 02:11:23;;;;;;;7.10;6.37;;;15.90;1.00;;;;;;5345322;26;20491;-73
2024/04/12 02:13:53;;;;;;;5.73;4.60;;;15.90;1.00;;;;;;5343486;26;20479;-73
2024/04/12 02:16:21;;;;;;;7.17;5.20;;;15.90;1.00;;;;;;5344284;26;20491;-73
2024/04/12 02:18:49;;;;;;;5.27;4.77;;;15.90;1.00;;;;;;5330104;26;20535;-74
2024/04/12 02:21:19;;;;;;;6.77;4.70;;;15.90;1.00;;;;;;5305502;26;20561;-73
2024/04/12 02:23:45;;;;;;;4.50;4.10;;;15.90;1.00;;;;;;5308158;26;20496;-72
2024/04/12 02:26:15;;;;;;;5.33;4.50;;;15.90;1.00;;;;;;5309059;26;21167;-73
2024/04/12 02:28:43;;;;;;;6.00;4.63;;;15.90;1.00;;;;;;5306847;26;20596;-71
2024/04/12 02:31:14;;;;;;;5.10;4.07;;;15.80;1.00;;;;;;5312641;26;20500;-71
2024/04/12 02:33:42;;;;;;;4.70;4.23;;;15.80;1.00;;;;;;5307954;26;20481;-73
2024/04/12 02:36:15;;;;;;;6.97;4.23;;;15.80;1.00;;;;;;5312027;26;20512;-73
2024/04/12 02:38:42;;;;;;;4.57;3.93;;;15.80;1.00;;;;;;5308247;26;20591;-72
2024/04/12 02:41:14;;;;;;;4.80;4.27;;;15.80;1.00;;;;;;5309356;26;20504;-73
2024/04/12 02:43:45;;;;;;;6.10;4.00;;;15.70;1.00;;;;;;5314882;26;20571;-72
2024/04/12 02:46:16;;;;;;;12.87;5.30;;;15.70;1.00;;;;;;5312360;26;20520;-72
2024/04/12 02:48:43;;;;;;;5.07;4.20;;;15.70;1.00;;;;;;5317732;26;20492;-71
2024/04/12 02:51:13;;;;;;;5.10;4.60;;;15.70;1.00;;;;;;5338685;26;20493;-72
2024/04/12 02:53:39;;;;;;;6.87;4.27;;;15.70;1.00;;;;;;5355989;26;20497;-72
2024/04/12 02:56:11;;;;;;;5.67;5.03;;;15.60;1.00;;;;;;5342637;26;20494;-72
2024/04/12 02:58:39;;;;;;;5.73;5.13;;;15.60;1.00;;;;;;5340224;26;20490;-74
2024/04/12 03:01:08;;;;;;;6.20;5.50;;;15.60;1.00;;;;;;5340335;26;20488;-72
2024/04/12 03:03:41;;;;;;;5.00;4.60;;;15.70;1.00;;;;;;5341456;26;20558;-73
2024/04/12 03:06:10;;;;;;;5.87;5.37;;;15.80;1.00;;;;;;5334465;26;20601;-75
2024/04/12 03:08:38;;;;;;;4.73;4.30;;;15.80;1.00;;;;;;5304266;26;20507;-73
2024/04/12 03:11:21;;;;;;;7.30;4.93;;;15.80;1.00;;;;;;5306933;26;20491;-76
2024/04/12 03:13:50;;;;;;;5.30;4.63;;;15.80;1.00;;;;;;5310589;26;20589;-73
2024/04/12 03:16:20;;;;;;;4.57;4.13;;;15.70;1.00;;;;;;5321403;26;20519;-73
2024/04/12 03:18:51;;;;;;;4.53;4.10;;;15.60;1.00;;;;;;5315239;26;20506;-74
2024/04/12 03:21:21;;;;;;;8.47;5.17;;;15.60;1.00;;;;;;5322589;26;20505;-74
2024/04/12 03:23:47;;;;;;;9.50;5.50;;;15.60;1.00;;;;;;5343712;26;20487;-73
2024/04/12 03:26:18;;;;;;;4.97;4.57;;;15.60;1.00;;;;;;5338655;26;20507;-72
2024/04/12 03:28:45;;;;;;;7.03;5.00;;;15.50;1.00;;;;;;5338386;26;20492;-75
2024/04/12 03:31:14;;;;;;;9.70;5.87;;;15.50;1.00;;;;;;5349855;26;20511;-72
2024/04/12 03:33:44;;;;;;;7.77;5.10;;;15.50;1.00;;;;;;5340374;26;20573;-73
2024/04/12 03:36:40;;;;;;;9.30;5.87;;;15.50;1.00;;;;;;5345437;26;20575;-74
2024/04/12 03:39:24;;;;;;;6.33;4.83;;;15.40;1.00;;;;;;5339136;26;20487;-74
2024/04/12 03:41:56;;;;;;;5.53;4.83;;;15.40;1.00;;;;;;5328039;26;20503;-73
2024/04/12 03:44:25;;;;;;;9.67;5.67;;;15.40;1.00;;;;;;5342535;26;20551;-75
2024/04/12 03:46:57;;;;;;;8.73;5.03;;;15.50;1.00;;;;;;5341348;26;20568;-75
2024/04/12 03:49:23;;;;;;;7.87;4.33;;;15.40;1.00;;;;;;5302164;26;20590;-74
2024/04/12 03:51:56;;;;;;;5.77;4.80;;;15.40;1.00;;;;;;5306452;26;20702;-74
2024/04/12 03:54:23;;;;;;;8.97;6.20;;;15.40;1.00;;;;;;5304345;26;21040;-74
2024/04/12 03:56:53;;;;;;;7.93;5.00;;;15.30;1.00;;;;;;5311061;26;20625;-73
2024/04/12 03:59:20;;;;;;;4.83;4.33;;;15.30;1.00;;;;;;5307120;26;20490;-73
2024/04/12 04:01:49;;;;;;;5.70;5.00;;;15.30;1.00;;;;;;5312403;26;20600;-73
2024/04/12 04:04:19;;;;;;;8.47;6.17;;;15.30;1.00;;;;;;5295585;26;20545;-74
2024/04/12 04:06:54;;;;;;;11.37;5.90;;;15.30;1.00;;;;;;5306780;26;20497;-74
2024/04/12 04:09:25;;;;;;;6.40;5.10;;;15.30;1.00;;;;;;5340831;26;21049;-74
2024/04/12 04:11:55;;;;;;;6.63;6.00;;;15.30;1.00;;;;;;5326323;26;20614;-74
2024/04/12 04:14:25;;;;;;;6.93;5.60;;;15.30;1.00;;;;;;5348272;26;20510;-71
2024/04/12 04:16:55;;;;;;;7.60;6.20;;;15.30;1.00;;;;;;5342948;26;20495;-73
2024/04/12 04:19:30;;;;;;;15.90;7.83;;;15.30;1.00;;;;;;5343484;26;20555;-72
2024/04/12 04:22:01;;;;;;;7.70;6.80;;;15.40;1.00;;;;;;5323768;26;20569;-72
2024/04/12 04:24:32;;;;;;;7.77;6.67;;;15.40;1.00;;;;;;5333757;26;20543;-72
2024/04/12 04:27:01;;;;;;;7.27;6.40;;;15.40;1.00;;;;;;5338063;26;20691;-71
2024/04/12 04:29:27;;;;;;;6.60;5.87;;;15.50;1.00;;;;;;5302720;26;20493;-74
2024/04/12 04:31:56;;;;;;;7.30;6.60;;;15.40;1.00;;;;;;5303662;26;20481;-72
2024/04/12 04:34:22;;;;;;;7.90;6.97;;;15.40;1.00;;;;;;5342638;26;21023;-72
2024/04/12 04:36:56;;;;;;;8.37;6.90;;;15.40;1.00;;;;;;5337818;26;20490;-73
2024/04/12 04:39:23;;;;;;;10.03;9.03;;;15.50;1.00;;;;;;5340493;26;20546;-73
2024/04/12 04:41:55;;;;;;;14.23;8.80;;;15.50;1.00;;;;;;5341983;26;20533;-74
2024/04/12 04:44:22;;;;;;;10.53;6.97;;;15.60;1.00;;;;;;5307898;26;20488;-72
2024/04/12 04:46:53;;;;;;;7.03;6.30;;;15.60;1.00;;;;;;5309639;26;20593;-72
2024/04/12 04:49:23;;;;;;;8.40;7.57;;;15.60;1.00;;;;;;5301213;26;20492;-73
2024/04/12 04:51:52;;;;;;;7.37;6.73;;;15.60;1.00;;;;;;5315707;26;20687;-74
2024/04/12 04:54:21;;;;;;;10.80;6.90;;;15.60;1.00;;;;;;5342701;26;20749;-73
2024/04/12 04:56:51;;;;;;;7.90;5.80;;;15.60;1.00;;;;;;5341250;26;20523;-72
2024/04/12 04:59:28;;;;;;;6.57;5.97;;;15.60;1.00;;;;;;5338135;26;21008;-72
2024/04/12 05:02:00;;;;;;;8.73;6.20;;;15.60;1.00;;;;;;5341731;26;20614;-72
2024/04/12 05:04:31;;;;;;;6.53;5.90;;;15.60;1.00;;;;;;5314583;26;21072;-72
2024/04/12 05:07:00;;;;;;;8.03;6.50;;;15.60;1.00;;;;;;5310464;26;20480;-72
2024/04/12 05:09:27;;;;;;;6.70;5.40;;;15.60;1.00;;;;;;5323826;26;21095;-73
2024/04/12 05:11:57;;;;;;;5.63;5.13;;;15.60;1.00;;;;;;5345652;26;20494;-71
2024/04/12 05:17:15;;;;;;;8.03;6.90;;;15.60;1.00;;;;;;5356213;26;20509;-72
2024/04/12 05:19:43;;;;;;;5.50;5.10;;;15.60;1.00;;;;;;5342802;26;21067;-73
2024/04/12 05:22:13;;;;;;;6.67;5.60;;;15.70;1.00;;;;;;5366186;26;20580;-73
2024/04/12 05:24:39;;;;;;;10.13;6.50;;;15.70;1.00;;;;;;5326537;26;20495;-73
2024/04/12 05:27:11;;;;;;;7.17;6.20;;;15.80;1.00;;;;;;5309085;26;20602;-73
2024/04/12 05:29:41;;;;;;;13.10;6.80;;;15.80;1.00;;;;;;5302734;26;20487;-74
2024/04/12 05:32:12;;;;;;;11.20;7.67;;;15.80;1.00;;;;;;5307870;26;21087;-74
2024/04/12 05:34:40;;;;;;;6.70;6.10;;;15.80;1.00;;;;;;5312287;26;20497;-74
2024/04/12 05:37:09;;;;;;;6.70;6.00;;;15.80;1.00;;;;;;5308554;26;20496;-75
2024/04/12 05:39:36;;;;;;;7.93;6.70;;;15.80;1.00;;;;;;5310722;26;20511;-74
2024/04/12 05:42:09;;;;;;;10.43;6.83;;;15.80;1.00;;;;;;5307630;26;21002;-74
2024/04/12 05:44:39;;;;;;;8.53;7.73;;;15.90;1.00;;;;;;5318349;26;20499;-74
2024/04/12 05:47:09;;;;;;;9.90;7.13;;;15.90;1.00;;;;;;5334393;26;20499;-75
2024/04/12 05:49:36;;;;;;;8.80;7.30;;;16.00;1.00;;;;;;5366020;26;20515;-78
2024/04/12 05:52:06;;;;;;;16.43;8.70;;;16.00;1.00;;;;;;5329635;26;20502;-78
2024/04/12 05:54:39;;;;;;;13.70;7.70;;;16.10;1.00;;;;;;5344288;26;20485;-76
2024/04/12 05:57:10;;;;;;;11.40;7.93;;;16.20;1.00;;;;;;5341063;26;20483;-77
2024/04/12 05:59:42;;;;;;;14.70;8.30;;;16.20;1.00;;;;;;5330515;26;20607;-75
2024/04/12 06:02:15;;;;;;;13.27;8.63;;;16.30;1.00;;;;;;5306325;26;20508;-77
2024/04/12 06:04:46;;;;;;;12.50;8.63;;;16.30;1.00;;;;;;5331990;26;20611;-75
2024/04/12 06:07:16;;;;;;;17.80;8.90;;;16.40;1.00;;;;;;5326655;26;20536;-72
2024/04/12 06:09:47;;;;;;;9.47;7.90;;;16.40;1.00;;;;;;5340010;26;20487;-74
2024/04/12 06:12:16;;;;;;;11.83;9.50;;;16.30;1.00;;;;;;5328175;26;20526;-73
2024/04/12 06:14:45;;;;;;;10.43;8.00;;;16.30;1.00;;;;;;5322276;26;20547;-74
2024/04/12 06:17:15;;;;;;;10.97;9.10;;;16.30;1.00;;;;;;5333705;26;20625;-73
2024/04/12 06:19:41;;;;;;;9.57;8.57;;;16.30;1.00;;;;;;5337825;26;21134;-75
2024/04/12 06:22:13;;;;;;;9.47;8.50;;;16.40;1.00;;;;;;5341765;26;20856;-72
2024/04/12 06:24:40;;;;;;;10.50;9.00;;;16.50;1.00;;;;;;5341524;26;20536;-75
2024/04/12 06:27:09;;;;;;;11.27;9.73;;;16.60;1.00;;;;;;5338356;26;20499;-75
2024/04/12 06:29:35;;;;;;;12.73;9.73;;;16.60;1.00;;;;;;5341236;26;21071;-73
2024/04/12 06:32:08;;;;;;;10.90;9.20;;;16.60;1.00;;;;;;5345651;26;21082;-73
2024/04/12 06:34:37;;;;;;;11.17;8.47;;;16.60;1.00;;;;;;5331402;26;21066;-72
2024/04/12 06:37:08;;;;;;;9.80;8.80;;;16.50;1.00;;;;;;5342276;26;20556;-74
2024/04/12 06:39:34;;;;;;;9.70;8.30;;;16.60;1.00;;;;;;5345415;26;21256;-71
2024/04/12 06:42:04;;;;;;;12.85;10.13;;;16.50;1.00;;;;;;5338332;26;20367;-71
2024/04/12 06:44:33;;;;;;;10.53;8.50;;;16.50;1.00;;;;;;5325086;26;20282;-70
2024/04/12 06:47:01;;;;;;;10.43;8.33;;;16.40;1.00;;;;;;5329451;26;20653;-73
2024/04/12 06:49:37;;;;;;;10.50;8.47;;;16.30;1.00;;;;;;5340448;26;21052;-76
2024/04/12 06:52:14;;;;;;;9.87;8.47;;;16.20;1.00;;;;;;5334953;26;20990;-73
2024/04/12 06:54:45;;;;;;;10.90;8.10;;;16.20;1.00;;;;;;5307108;26;20646;-69
2024/04/12 06:57:17;;;;;;;10.07;9.07;;;16.10;1.00;;;;;;5301632;26;23411;-72
2024/04/12 06:59:47;;;;;;;10.10;8.67;;;16.00;1.00;;;;;;5307006;26;20534;-69
2024/04/12 07:02:14;;;;;;;9.03;7.80;;;16.00;1.00;;;;;;5308666;26;20677;-70
2024/04/12 07:04:45;;;;;;;10.33;9.33;;;16.00;1.00;;;;;;5310333;26;21043;-71
2024/04/12 07:07:12;;;;;;;13.10;9.63;;;16.00;1.00;;;;;;5303443;26;20504;-71
2024/04/12 07:09:45;;;;;;;11.17;8.93;;;16.00;1.00;;;;;;5307238;26;21010;-70
2024/04/12 07:12:14;;;;;;;18.10;10.17;;;16.10;1.00;;;;;;5305596;26;20564;-73
2024/04/12 07:14:46;;;;;;;18.20;8.50;;;16.10;1.00;;;;;;5302859;26;20552;-72
2024/04/12 07:17:20;;;;;;;8.73;7.37;;;16.20;1.00;;;;;;5332173;26;20545;-72
2024/04/12 07:19:53;;;;;;;10.47;7.47;;;16.30;1.00;;;;;;5308637;26;21548;-71
2024/04/12 07:22:19;;;;;;;13.43;7.83;;;16.40;1.00;;;;;;5304515;26;20493;-70
2024/04/12 07:24:50;;;;;;;13.97;8.13;;;16.50;1.00;;;;;;5307566;26;20485;-72
2024/04/12 07:27:17;;;;;;;8.93;7.60;;;16.50;1.00;;;;;;5337541;26;20491;-73
2024/04/12 07:29:46;;;;;;;9.50;7.97;;;16.60;1.00;;;;;;5337245;26;20618;-73
2024/04/12 07:32:14;;;;;;;11.03;7.50;;;16.60;1.00;;;;;;5339627;26;20494;-71
2024/04/12 07:34:48;;;;;;;11.43;7.90;;;16.70;1.00;;;;;;5339836;26;20507;-71
2024/04/12 07:37:26;;;;;;;14.10;8.20;;;16.60;1.00;;;;;;5341454;25;20502;-73
2024/04/12 07:40:15;;;;;;;8.83;8.10;;;16.60;1.00;;;;;;5342158;26;20535;-71
2024/04/12 07:42:46;;;;;;;8.50;7.60;;;16.60;1.00;;;;;;5342178;26;20491;-72
2024/04/12 07:45:23;;;;;;;12.53;8.30;;;16.60;1.00;;;;;;5340345;25;20496;-72
2024/04/12 07:47:53;;;;;;;8.80;7.90;;;16.60;1.00;;;;;;5339070;26;20961;-71
2024/04/12 07:50:28;;;;;;;14.97;8.13;;;16.70;1.00;;;;;;5339430;26;20606;-71
2024/04/12 07:52:58;;;;;;;10.00;8.67;;;16.90;1.00;;;;;;5337595;26;20546;-71
2024/04/12 07:55:28;;;;;;;10.10;9.07;;;17.00;1.00;;;;;;5348646;26;20789;-71
2024/04/12 07:58:00;;;;;;;10.93;8.30;;;17.30;1.00;;;;;;5346854;26;20501;-71
2024/04/12 08:00:35;;;;;;;10.80;9.37;;;17.60;1.00;;;;;;5345476;26;20492;-70
2024/04/12 08:03:06;;;;;;;9.40;8.20;;;17.80;1.00;;;;;;5310852;26;20478;-70
2024/04/12 08:05:49;;;;;;;11.00;9.33;;;17.80;1.00;;;;;;5311212;26;20495;-70
2024/04/12 08:08:27;;;;;;;8.67;7.87;;;17.90;1.00;;;;;;5304433;26;21396;-69
2024/04/12 08:10:57;;;;;;;13.20;10.00;;;17.90;1.00;;;;;;5301849;26;20493;-70
2024/04/12 08:13:28;;;;;;;14.30;9.57;;;17.90;1.00;;;;;;5311516;26;20498;-71
2024/04/12 08:15:59;;;;;;;10.97;9.37;;;18.00;1.00;;;;;;5323206;26;21037;-72
2024/04/12 08:18:26;;;;;;;10.27;8.63;;;18.20;1.00;;;;;;5340296;26;20636;-69
2024/04/12 08:21:02;;;;;;;8.80;8.00;;;18.20;1.00;;;;;;5338844;26;20570;-71
2024/04/12 08:23:31;;;;;;;10.73;9.63;;;18.10;1.00;;;;;;5333073;26;20926;-71
2024/04/12 08:26:10;;;;;;;11.17;8.00;;;18.20;1.00;;;;;;5333751;26;20596;-68
2024/04/12 08:28:36;;;;;;;12.27;9.10;;;18.20;1.00;;;;;;5333231;26;20572;-68
2024/04/12 08:31:05;;;;;;;9.60;7.80;;;18.20;1.00;;;;;;5334422;26;20527;-69
2024/04/12 08:33:32;;;;;;;10.83;8.50;;;18.40;1.00;;;;;;5305330;26;21143;-70
2024/04/12 08:36:02;;;;;;;9.97;8.47;;;18.50;1.00;;;;;;5318302;26;20898;-70
2024/04/12 08:38:35;;;;;;;11.37;10.10;;;18.30;1.00;;;;;;5334255;26;20594;-71
2024/04/12 08:41:13;;;;;;;10.23;9.00;;;18.30;1.00;;;;;;5333523;26;20550;-71
2024/04/12 08:43:46;;;;;;;12.33;10.20;;;18.30;1.00;;;;;;5301368;26;20621;-71
2024/04/12 08:46:21;;;;;;;10.40;8.90;;;18.30;1.00;;;;;;5303040;26;21101;-71
2024/04/12 08:48:48;;;;;;;11.97;9.10;;;18.30;1.00;;;;;;5302312;26;22888;-70
2024/04/12 08:51:21;;;;;;;11.33;7.30;;;18.20;1.00;;;;;;5306613;26;20610;-69
2024/04/12 08:53:55;;;;;;;13.37;8.80;;;18.10;1.00;;;;;;5345885;26;21001;-70
2024/04/12 08:56:28;;;;;;;11.20;8.93;;;18.10;1.00;;;;;;5332098;26;20592;-70
2024/04/12 08:58:59;;;;;;;9.47;8.47;;;18.00;1.00;;;;;;5337942;26;20615;-71
2024/04/12 09:01:29;;;;;;;10.13;8.30;;;17.90;1.00;;;;;;5338809;26;20504;-71
2024/04/12 09:04:04;;;;;;;10.60;9.53;;;18.00;1.00;;;;;;5339185;26;20482;-71
2024/04/12 09:06:35;;;;;;;10.90;8.60;;;18.00;1.00;;;;;;5339575;26;20657;-70
2024/04/12 09:09:03;;;;;;;11.40;9.40;;;18.00;1.00;;;;;;5338710;26;20620;-72
2024/04/12 09:11:32;;;;;;;10.00;9.10;;;18.20;1.00;;;;;;5299791;26;21061;-73
2024/04/12 09:14:08;;;;;;;10.80;9.17;;;18.30;1.00;;;;;;5304115;26;20548;-71
2024/04/12 09:16:43;;;;;;;10.13;8.90;;;18.30;1.00;;;;;;5340858;26;20559;-71
2024/04/12 09:19:13;;;;;;;10.03;8.43;;;18.50;1.00;;;;;;5329687;26;20506;-71
2024/04/12 09:21:58;;;;;;;10.33;9.33;;;18.60;1.00;;;;;;5310344;26;20541;-69
2024/04/12 09:24:31;;;;;;;10.37;8.70;;;18.40;1.00;;;;;;5332502;26;20580;-71
2024/04/12 09:27:09;;;;;;;9.37;8.47;;;18.20;1.00;;;;;;5326816;26;20612;-70
2024/04/12 09:29:43;;;;;;;13.83;11.63;;;18.30;1.00;;;;;;5328858;26;20545;-71
2024/04/12 09:34:59;;;;;;;16.83;11.57;;;18.30;1.00;;;;;;5337464;26;20919;-69
2024/04/12 09:37:28;;;;;;;10.97;9.87;;;18.20;1.00;;;;;;5310359;26;20545;-70
2024/04/12 09:40:04;;;;;;;10.53;9.43;;;18.20;1.00;;;;;;5389169;26;20494;-71
2024/04/12 09:42:44;;;;;;;10.87;9.77;;;18.40;1.00;;;;;;5335364;26;21075;-71
2024/04/12 09:45:17;;;;;;;12.27;9.30;;;18.40;1.00;;;;;;5336422;26;20644;-71
2024/04/12 10:38:05;;;;;;;15.63;11.10;;;18.80;1.00;;;;;;5341229;26;21022;-70
2024/04/12 10:40:36;;;;;;;9.83;8.60;;;18.70;1.00;;;;;;5338588;26;20493;-73
2024/04/12 10:43:05;;;;;;;9.50;8.50;;;18.60;1.00;;;;;;5310647;26;20547;-70
2024/04/12 10:45:36;;;;;;;12.50;9.77;;;18.50;1.00;;;;;;5337832;26;20477;-72
2024/04/12 10:48:05;;;;;;;12.50;10.30;;;18.30;1.00;;;;;;5320438;26;20492;-70
2024/04/12 10:50:32;;;;;;;11.83;9.07;;;18.30;1.00;;;;;;5316456;26;20684;-70
2024/04/12 10:53:06;;;;;;;10.50;9.47;;;18.40;1.00;;;;;;5339118;26;20491;-72
2024/04/12 10:55:35;;;;;;;11.23;9.30;;;18.30;1.00;;;;;;5338945;26;20953;-71
2024/04/12 10:58:05;;;;;;;10.30;8.77;;;18.30;1.00;;;;;;5336293;26;20544;-71
2024/04/12 11:00:35;;;;;;;9.30;8.30;;;18.40;1.00;;;;;;5384865;26;20542;-71
2024/04/12 11:03:17;;;;;;;11.07;8.23;;;18.50;1.00;;;;;;5301276;26;20491;-71
2024/04/12 11:05:46;;;;;;;9.83;8.83;;;18.60;1.00;;;;;;5329487;26;20551;-72
2024/04/12 11:08:15;;;;;;;8.90;8.00;;;18.70;1.00;;;;;;5336832;26;20616;-71
2024/04/12 11:10:54;;;;;;;11.57;8.40;;;18.70;1.00;;;;;;5325072;26;20577;-72
2024/04/12 11:13:29;;;;;;;7.53;6.83;;;18.90;1.00;;;;;;5339443;26;20496;-72
2024/04/12 11:32:42;;;;;;;8.20;7.30;;;19.90;1.00;;;;;;5341936;26;20499;-73
2024/04/12 11:35:15;;;;;;;9.10;6.83;;;20.30;1.00;;;;;;5339727;26;20539;-73
2024/04/12 11:37:43;;;;;;;13.23;9.50;;;20.40;1.00;;;;;;5342206;26;21055;-75
2024/04/12 11:40:16;;;;;;;11.30;8.40;;;20.60;1.00;;;;;;5341067;26;20486;-72
2024/04/12 11:42:47;;;;;;;7.70;6.90;;;20.60;1.00;;;;;;5338500;26;20610;-72
2024/04/12 11:45:15;;;;;;;9.93;7.33;;;20.80;1.00;;;;;;5335402;26;20522;-72
2024/04/12 11:47:47;;;;;;;8.70;7.50;;;21.00;1.00;;;;;;5337596;26;20989;-74
2024/04/12 11:50:14;;;;;;;7.13;5.70;;;20.90;1.00;;;;;;5339687;26;20630;-72
2024/04/12 11:52:43;;;;;;;7.80;7.00;;;20.70;1.00;;;;;;5332116;26;21659;-72
2024/04/12 11:55:12;;;;;;;8.07;6.20;;;20.50;1.00;;;;;;5339646;26;20502;-72
2024/04/12 11:57:44;;;;;;;6.63;5.83;;;20.40;1.00;;;;;;5338704;26;20536;-73
2024/04/12 12:00:11;;;;;;;6.87;6.27;;;20.30;1.00;;;;;;5335935;26;24192;-72
2024/04/12 12:02:42;;;;;;;7.60;7.00;;;20.50;1.00;;;;;;5338633;26;23022;-72
2024/04/12 12:05:16;;;;;;;7.80;6.50;;;20.70;1.00;;;;;;5335255;26;20489;-72
2024/04/12 12:07:45;;;;;;;10.20;7.97;;;20.90;1.00;;;;;;5341080;26;21104;-72
2024/04/12 12:10:12;;;;;;;8.77;8.07;;;21.30;1.00;;;;;;5339383;26;20644;-72
2024/04/12 12:12:41;;;;;;;7.40;6.20;;;22.60;1.00;;;;;;5342654;26;21041;-72
2024/04/12 12:15:09;;;;;;;7.47;6.70;;;23.90;1.00;;;;;;5344872;26;20548;-73
2024/04/12 12:17:37;;;;;;;7.27;6.20;;;24.80;1.00;;;;;;5340974;26;20501;-72
2024/04/12 12:20:04;;;;;;;9.20;6.77;;;25.10;1.00;;;;;;5330979;26;21071;-72
2024/04/12 12:22:38;;;;;;;11.20;7.87;;;25.30;1.00;;;;;;5337668;26;20920;-72
2024/04/12 12:25:07;;;;;;;9.47;6.33;;;25.30;1.00;;;;;;5340951;26;20572;-73
2024/04/12 12:27:36;;;;;;;6.00;5.50;;;25.40;1.00;;;;;;5336025;26;20498;-74
2024/04/12 12:30:13;;;;;;;6.17;5.57;;;25.20;1.00;;;;;;5338549;26;21012;-72
2024/04/12 12:32:44;;;;;;;5.17;4.77;;;25.60;1.00;;;;;;5341340;26;20474;-72
2024/04/12 12:35:18;;;;;;;6.07;5.37;;;26.80;1.00;;;;;;5316815;26;20496;-71
2024/04/12 12:37:51;;;;;;;5.43;4.70;;;28.50;1.00;;;;;;5330170;26;21084;-73
2024/04/12 12:40:18;;;;;;;5.00;4.50;;;30.00;1.00;;;;;;5330222;26;20504;-73
2024/04/12 12:42:51;;;;;;;10.00;6.40;;;30.30;1.00;;;;;;5302044;26;21481;-74
2024/04/12 12:45:19;;;;;;;5.37;4.87;;;29.90;1.00;;;;;;5301581;26;20770;-73
2024/04/12 12:47:48;;;;;;;6.60;6.00;;;29.80;1.00;;;;;;5300218;26;20733;-72
2024/04/12 12:50:19;;;;;;;6.40;5.90;;;30.10;1.00;;;;;;5302934;26;20492;-74
2024/04/12 12:52:52;;;;;;;5.43;4.97;;;30.80;1.00;;;;;;5305016;26;20552;-73
2024/04/12 12:55:20;;;;;;;6.07;5.57;;;30.30;1.00;;;;;;5334842;26;21022;-73
2024/04/12 12:57:57;;;;;;;5.33;4.43;;;29.70;1.00;;;;;;5334544;26;20493;-73
2024/04/12 13:00:23;;;;;;;4.70;4.30;;;29.70;1.00;;;;;;5319942;26;20599;-71
2024/04/12 13:02:52;;;;;;;4.80;4.30;;;30.00;1.00;;;;;;5337399;26;20491;-73
2024/04/12 13:05:20;;;;;;;4.87;4.47;;;30.60;1.00;;;;;;5339180;26;20709;-73
2024/04/12 13:07:51;;;;;;;5.30;4.60;;;30.20;1.00;;;;;;5338850;26;20896;-72
2024/04/12 13:10:19;;;;;;;5.60;5.03;;;29.80;1.00;;;;;;5337483;26;20611;-74
2024/04/12 13:12:53;;;;;;;6.87;5.50;;;29.60;1.00;;;;;;5337537;26;20483;-71
2024/04/12 13:15:21;;;;;;;4.93;4.43;;;29.40;1.00;;;;;;5338064;26;20659;-71
2024/04/12 13:17:51;;;;;;;6.00;5.43;;;29.00;1.00;;;;;;5335860;26;20533;-73
2024/04/12 13:20:19;;;;;;;5.90;5.40;;;28.20;1.00;;;;;;5336363;26;20496;-73
2024/04/12 13:22:51;;;;;;;8.10;6.00;;;27.50;1.00;;;;;;5333580;26;21021;-72
2024/04/12 13:25:17;;;;;;;7.20;5.80;;;26.80;1.00;;;;;;5334385;26;20582;-72
2024/04/12 13:27:47;;;;;;;5.87;5.37;;;26.20;1.00;;;;;;5337870;26;20707;-72
2024/04/12 13:30:14;;;;;;;5.87;5.30;;;26.00;1.00;;;;;;5340156;26;20641;-72
2024/04/12 13:32:43;;;;;;;5.43;5.03;;;25.90;1.00;;;;;;5334492;26;22862;-72
2024/04/12 13:35:10;;;;;;;6.23;5.20;;;25.70;1.00;;;;;;5326079;26;20509;-74
2024/04/12 13:37:40;;;;;;;5.83;5.20;;;25.70;1.00;;;;;;5357798;26;20493;-74
2024/04/12 13:40:17;;;;;;;5.07;4.70;;;25.80;1.00;;;;;;5333322;26;21080;-73
2024/04/12 13:42:48;;;;;;;5.67;4.60;;;25.60;1.00;;;;;;5336044;26;20489;-73
2024/04/12 13:51:01;;;;;;;4.50;4.10;;;24.90;1.00;;;;;;5343697;26;20516;-74
2024/04/12 13:53:36;;;;;;;5.90;4.27;;;24.30;1.00;;;;;;5339302;26;20543;-74
2024/04/12 13:56:25;;;;;;;4.20;3.90;;;24.00;1.00;;;;;;5339512;26;20504;-77
2024/04/12 13:58:53;;;;;;;5.30;3.30;;;23.90;1.00;;;;;;5332420;26;20930;-75
2024/04/12 14:01:24;;;;;;;3.90;3.60;;;23.80;1.00;;;;;;5334780;26;20524;-73
2024/04/12 14:03:51;;;;;;;7.30;3.53;;;23.80;1.00;;;;;;5323312;26;20472;-74
2024/04/12 14:06:23;;;;;;;5.10;3.63;;;23.70;1.00;;;;;;5294588;26;20569;-75
2024/04/12 14:08:51;;;;;;;6.93;4.00;;;23.90;1.00;;;;;;5306332;26;20485;-75
2024/04/12 14:11:23;;;;;;;6.40;3.87;;;24.30;1.00;;;;;;5298784;26;20501;-74
2024/04/12 14:13:49;;;;;;;4.43;3.27;;;24.70;1.00;;;;;;5319458;26;20498;-74
2024/04/12 14:16:19;;;;;;;3.90;3.50;;;25.00;1.00;;;;;;5338703;26;20959;-75
2024/04/12 14:18:48;;;;;;;3.23;2.93;;;25.10;1.00;;;;;;5342318;26;21011;-74
2024/04/12 14:21:18;;;;;;;6.07;3.63;;;25.10;1.00;;;;;;5335734;26;20501;-74
2024/04/12 14:23:44;;;;;;;5.53;4.87;;;25.20;1.00;;;;;;5341233;26;20515;-74
2024/04/12 14:26:13;;;;;;;3.57;3.10;;;25.10;1.00;;;;;;5338487;26;20540;-75
2024/04/12 14:28:43;;;;;;;3.87;3.47;;;25.00;1.00;;;;;;5340327;26;21009;-74